Time;durP1;ratioP1;P1;durP2;ratioP2;P2;SDS_P1;SDS_P2;PMS_P1;PMS_P2;Temp;Humidity;BMP_temperature;BMP_pressure;BME280_temperature;BME280_humidity;BME280_pressure;Samples;Min_cycle;Max_cycle;Signal;HPM_P1;HPM_P2
2021/06/18 00:00:45;;;;;;;13.27;8.23;;;22.90;99.90;;;;;;5089167;28;20236;-66
2021/06/18 00:03:13;;;;;;;10.97;9.87;;;22.90;99.90;;;;;;5089576;28;20532;-65
2021/06/18 00:05:41;;;;;;;10.63;9.07;;;22.90;99.90;;;;;;5089913;28;20241;-65
2021/06/18 00:08:09;;;;;;;10.43;8.93;;;22.80;99.90;;;;;;5089986;28;20289;-65
2021/06/18 00:10:38;;;;;;;10.97;9.03;;;22.80;99.90;;;;;;5089083;28;20257;-67
2021/06/18 00:13:06;;;;;;;10.63;8.70;;;22.80;99.90;;;;;;5089508;28;20247;-65
2021/06/18 00:15:34;;;;;;;14.67;9.27;;;22.70;99.90;;;;;;5089778;28;20223;-66
2021/06/18 00:18:04;;;;;;;10.63;9.27;;;22.70;99.90;;;;;;5090151;28;20436;-66
2021/06/18 00:20:32;;;;;;;12.40;9.40;;;22.60;99.90;;;;;;5080852;28;20698;-66
2021/06/18 00:23:00;;;;;;;12.60;9.10;;;22.60;99.90;;;;;;5089105;28;20263;-65
2021/06/18 00:25:28;;;;;;;12.43;10.10;;;22.60;99.90;;;;;;5089908;28;20241;-66
2021/06/18 00:27:57;;;;;;;13.90;10.60;;;22.60;99.90;;;;;;5089795;28;20611;-66
2021/06/18 00:30:25;;;;;;;11.90;10.63;;;22.60;99.90;;;;;;5088877;28;20235;-66
2021/06/18 00:32:53;;;;;;;12.33;9.43;;;22.60;99.90;;;;;;5089166;28;20261;-65
2021/06/18 00:35:22;;;;;;;10.57;9.47;;;22.60;99.90;;;;;;5088646;28;20231;-66
2021/06/18 00:37:50;;;;;;;11.03;9.80;;;22.50;99.90;;;;;;5089785;28;20640;-66
2021/06/18 00:40:19;;;;;;;14.33;11.00;;;22.50;99.90;;;;;;5088987;28;20232;-66
2021/06/18 00:42:47;;;;;;;13.83;10.43;;;22.50;99.90;;;;;;5088724;28;20257;-66
2021/06/18 00:45:15;;;;;;;11.50;10.33;;;22.50;99.90;;;;;;5089460;28;20226;-66
2021/06/18 00:47:49;;;;;;;12.03;9.70;;;22.40;99.90;;;;;;5089283;28;20247;-66
2021/06/18 00:50:17;;;;;;;14.10;11.00;;;22.40;99.90;;;;;;5088647;28;20771;-67
2021/06/18 00:52:48;;;;;;;13.67;10.80;;;22.30;99.90;;;;;;5088321;28;20782;-66
2021/06/18 00:55:16;;;;;;;12.47;11.07;;;22.30;99.90;;;;;;5088911;28;20722;-66
2021/06/18 00:57:44;;;;;;;11.60;10.40;;;22.20;99.90;;;;;;5089439;28;20246;-67
2021/06/18 01:00:13;;;;;;;11.97;9.80;;;22.20;99.90;;;;;;5088439;28;20322;-66
2021/06/18 01:02:42;;;;;;;11.07;9.10;;;22.20;99.90;;;;;;5088120;28;20265;-65
2021/06/18 01:05:13;;;;;;;12.00;10.60;;;22.10;99.90;;;;;;5088844;28;20733;-66
2021/06/18 01:07:53;;;;;;;11.93;10.60;;;22.10;99.90;;;;;;5088823;28;20239;-65
2021/06/18 01:10:29;;;;;;;11.27;9.73;;;22.10;99.90;;;;;;5088258;28;20296;-66
2021/06/18 01:13:09;;;;;;;12.07;10.03;;;22.10;99.90;;;;;;5088102;28;20254;-66
2021/06/18 01:15:48;;;;;;;11.97;10.77;;;22.00;99.90;;;;;;5080853;28;20774;-66
2021/06/18 01:18:22;;;;;;;16.23;10.97;;;22.00;99.90;;;;;;5088806;28;20230;-66
2021/06/18 01:21:04;;;;;;;14.30;11.47;;;22.00;99.90;;;;;;5087741;28;20230;-66
2021/06/18 01:23:57;;;;;;;10.80;9.70;;;22.00;99.90;;;;;;5087512;28;20230;-66
2021/06/18 01:26:52;;;;;;;10.63;9.53;;;21.90;99.90;;;;;;5073682;28;20590;-66
2021/06/18 01:29:25;;;;;;;13.70;11.13;;;21.90;99.90;;;;;;5030627;28;20321;-66
2021/06/18 01:31:53;;;;;;;14.20;11.37;;;21.90;99.90;;;;;;5088039;28;20265;-66
2021/06/18 01:34:28;;;;;;;13.30;11.90;;;21.90;99.90;;;;;;5088093;28;20239;-66
2021/06/18 01:37:00;;;;;;;14.07;12.63;;;21.80;99.90;;;;;;5088232;28;20243;-65
2021/06/18 01:39:30;;;;;;;14.20;12.77;;;21.80;99.90;;;;;;5087601;28;20258;-67
2021/06/18 01:42:02;;;;;;;13.80;12.40;;;21.80;99.90;;;;;;5087775;28;20234;-66
2021/06/18 01:44:34;;;;;;;13.37;12.10;;;21.80;99.90;;;;;;5088010;28;20317;-66
2021/06/18 01:47:03;;;;;;;14.33;12.90;;;21.70;99.90;;;;;;5087984;28;20311;-66
2021/06/18 01:49:36;;;;;;;15.60;13.93;;;21.70;99.90;;;;;;5087912;28;20244;-66
2021/06/18 01:52:06;;;;;;;15.17;13.57;;;21.70;99.90;;;;;;5087343;28;20234;-65
2021/06/18 01:54:36;;;;;;;16.17;13.97;;;21.70;99.90;;;;;;5081099;28;20237;-66
2021/06/18 01:57:08;;;;;;;15.00;13.37;;;21.60;99.90;;;;;;5087946;28;20277;-65
2021/06/18 01:59:38;;;;;;;16.60;15.00;;;21.60;99.90;;;;;;5087161;28;20323;-66
2021/06/18 02:02:08;;;;;;;15.43;13.83;;;21.60;99.90;;;;;;5087318;28;20265;-65
2021/06/18 02:04:41;;;;;;;15.83;14.13;;;21.50;99.90;;;;;;5085631;28;20728;-66
2021/06/18 02:07:11;;;;;;;15.43;13.93;;;21.50;99.90;;;;;;5084051;28;20316;-65
2021/06/18 02:09:40;;;;;;;16.33;14.63;;;21.50;99.90;;;;;;5084040;28;20297;-65
2021/06/18 02:12:10;;;;;;;16.10;14.40;;;21.40;99.90;;;;;;5085431;28;20230;-65
2021/06/18 02:14:40;;;;;;;16.63;14.93;;;21.40;99.90;;;;;;5085643;28;20603;-66
2021/06/18 02:17:09;;;;;;;17.90;15.23;;;21.40;99.90;;;;;;5005859;28;20242;-66
2021/06/18 02:19:39;;;;;;;16.93;15.03;;;21.40;99.90;;;;;;1044944;28;10002013;-65
2021/06/18 02:22:10;;;;;;;18.97;16.93;;;21.30;99.90;;;;;;5067092;28;20468;-66
2021/06/18 02:24:41;;;;;;;17.77;16.03;;;21.30;99.90;;;;;;5067096;28;20709;-66
2021/06/18 02:27:14;;;;;;;17.77;16.00;;;21.30;99.90;;;;;;5066411;28;20246;-62
2021/06/18 02:29:44;;;;;;;17.53;15.83;;;21.30;99.90;;;;;;5066438;28;20235;-62
2021/06/18 02:32:14;;;;;;;19.80;16.60;;;21.20;99.90;;;;;;5066439;28;20235;-62
2021/06/18 02:34:42;;;;;;;19.63;17.77;;;21.20;99.90;;;;;;5066727;28;20317;-61
2021/06/18 02:37:12;;;;;;;20.97;18.53;;;21.20;99.90;;;;;;5067270;28;20234;-61
2021/06/18 02:39:42;;;;;;;18.50;16.70;;;21.20;99.90;;;;;;5066470;28;20238;-61
2021/06/18 02:42:11;;;;;;;18.03;16.20;;;21.20;99.90;;;;;;5067139;28;20299;-62
2021/06/18 02:44:40;;;;;;;19.87;17.77;;;21.20;99.90;;;;;;5066464;28;20583;-62
2021/06/18 02:47:15;;;;;;;19.77;17.73;;;21.10;99.90;;;;;;5066072;28;20762;-63
2021/06/18 02:49:48;;;;;;;19.97;18.03;;;21.10;99.90;;;;;;5066276;28;20234;-61
2021/06/18 02:52:23;;;;;;;19.80;17.77;;;21.10;99.90;;;;;;5082263;28;20266;-62
2021/06/18 02:54:59;;;;;;;20.23;17.73;;;21.10;99.90;;;;;;5066935;28;20229;-61
2021/06/18 02:57:34;;;;;;;20.90;18.80;;;21.00;99.90;;;;;;5067524;28;20624;-61
2021/06/18 03:00:07;;;;;;;20.33;18.10;;;21.00;99.90;;;;;;5068987;28;20309;-61
2021/06/18 03:02:42;;;;;;;20.17;17.93;;;21.00;99.90;;;;;;5070412;28;20250;-61
2021/06/18 03:05:15;;;;;;;19.83;17.70;;;21.00;99.90;;;;;;5070832;28;20249;-61
2021/06/18 03:07:50;;;;;;;23.70;21.13;;;21.00;99.90;;;;;;5070909;28;20273;-61
2021/06/18 03:10:24;;;;;;;22.60;20.30;;;21.00;99.90;;;;;;5069963;28;20226;-62
2021/06/18 03:12:59;;;;;;;22.07;19.87;;;21.00;99.90;;;;;;5070345;28;20706;-60
2021/06/18 03:15:29;;;;;;;24.63;22.03;;;21.00;99.90;;;;;;5071319;28;20700;-65
2021/06/18 03:18:00;;;;;;;24.20;21.70;;;21.00;99.90;;;;;;5070793;28;20577;-66
2021/06/18 03:20:28;;;;;;;24.67;22.27;;;21.00;99.90;;;;;;5069753;28;20223;-66
2021/06/18 03:22:59;;;;;;;26.27;23.70;;;21.00;99.90;;;;;;5070323;28;20230;-66
2021/06/18 03:25:29;;;;;;;27.60;24.77;;;21.00;99.90;;;;;;5070462;28;20247;-66
2021/06/18 03:27:58;;;;;;;29.10;26.07;;;21.00;99.90;;;;;;5070940;28;20703;-66
2021/06/18 03:30:27;;;;;;;27.17;24.27;;;21.00;99.90;;;;;;5069356;28;20656;-65
2021/06/18 03:32:56;;;;;;;28.00;24.97;;;21.00;99.90;;;;;;5069705;28;20311;-65
2021/06/18 03:35:26;;;;;;;29.23;26.13;;;21.00;99.90;;;;;;5070265;28;20239;-66
2021/06/18 03:37:59;;;;;;;28.90;26.30;;;21.00;99.90;;;;;;5070650;28;20268;-66
2021/06/18 03:40:28;;;;;;;30.83;27.60;;;21.00;99.90;;;;;;5068980;28;20328;-65
2021/06/18 03:42:56;;;;;;;31.50;28.30;;;21.00;99.90;;;;;;5069647;28;20235;-65
2021/06/18 03:45:24;;;;;;;29.80;26.90;;;21.00;99.90;;;;;;5070174;28;20260;-65
2021/06/18 03:47:53;;;;;;;29.53;26.40;;;20.90;99.90;;;;;;5070629;28;20230;-66
2021/06/18 03:50:24;;;;;;;26.73;24.13;;;21.00;99.90;;;;;;5069359;28;20227;-65
2021/06/18 03:52:53;;;;;;;23.60;21.30;;;21.00;99.90;;;;;;5069919;28;20698;-66
2021/06/18 03:55:22;;;;;;;22.43;20.40;;;21.10;99.90;;;;;;5069785;28;20590;-65
2021/06/18 03:57:51;;;;;;;24.10;21.43;;;21.10;99.90;;;;;;5070379;28;20239;-65
2021/06/18 04:00:20;;;;;;;19.10;17.40;;;21.10;99.90;;;;;;5069102;28;20235;-65
2021/06/18 04:02:51;;;;;;;19.87;17.87;;;21.10;99.90;;;;;;5069407;28;20253;-65
2021/06/18 04:05:23;;;;;;;23.07;20.80;;;21.10;99.90;;;;;;5069891;28;20323;-65
2021/06/18 04:07:55;;;;;;;20.20;18.33;;;21.20;99.90;;;;;;5069650;28;20315;-66
2021/06/18 04:10:23;;;;;;;23.47;21.17;;;21.20;99.90;;;;;;5068789;28;20322;-65
2021/06/18 04:12:53;;;;;;;26.90;24.37;;;21.30;99.90;;;;;;5069354;28;20231;-66
2021/06/18 04:15:23;;;;;;;24.67;22.47;;;21.30;99.90;;;;;;5069848;28;20250;-65
2021/06/18 04:17:52;;;;;;;23.07;20.93;;;21.30;99.90;;;;;;5069766;28;20238;-66
2021/06/18 04:20:21;;;;;;;26.50;23.93;;;21.40;99.90;;;;;;5068580;28;20242;-65
2021/06/18 04:22:54;;;;;;;28.60;25.80;;;21.40;99.90;;;;;;5069310;28;20238;-65
2021/06/18 04:25:23;;;;;;;30.77;27.57;;;21.40;99.90;;;;;;5069317;28;20246;-67
2021/06/18 04:27:51;;;;;;;30.57;27.57;;;21.50;99.90;;;;;;5069645;28;20242;-66
2021/06/18 04:30:21;;;;;;;29.40;26.60;;;21.40;99.90;;;;;;5068703;28;20268;-65
2021/06/18 04:32:49;;;;;;;28.33;25.50;;;21.50;99.90;;;;;;5068467;28;20246;-66
2021/06/18 04:35:17;;;;;;;33.13;29.67;;;21.60;99.90;;;;;;5068514;28;20227;-66
2021/06/18 04:37:46;;;;;;;31.97;28.87;;;21.60;99.90;;;;;;5069212;28;20243;-65
2021/06/18 04:40:16;;;;;;;31.97;28.50;;;21.70;99.90;;;;;;5067996;28;20777;-66
2021/06/18 04:42:45;;;;;;;31.50;28.00;;;21.70;99.90;;;;;;5068352;28;20243;-65
2021/06/18 04:45:14;;;;;;;31.93;28.80;;;21.80;99.90;;;;;;5068316;28;20595;-65
2021/06/18 04:47:42;;;;;;;38.13;34.30;;;21.80;99.90;;;;;;5068959;28;20243;-66
2021/06/18 04:50:11;;;;;;;39.50;34.73;;;21.90;99.90;;;;;;5066751;28;20669;-65
2021/06/18 04:52:41;;;;;;;40.77;36.60;;;21.90;99.90;;;;;;5066588;28;20257;-65
2021/06/18 04:55:15;;;;;;;41.47;37.17;;;21.90;99.90;;;;;;5067429;28;20257;-65
2021/06/18 04:57:45;;;;;;;41.47;37.23;;;21.90;99.90;;;;;;5068037;28;20226;-65
2021/06/18 05:00:14;;;;;;;46.60;41.90;;;21.80;99.90;;;;;;5067690;28;20274;-65
2021/06/18 05:02:43;;;;;;;48.00;43.17;;;21.80;99.90;;;;;;5067884;28;20266;-64
2021/06/18 05:05:12;;;;;;;49.27;44.27;;;21.90;99.90;;;;;;5067651;28;20325;-66
2021/06/18 05:07:40;;;;;;;47.83;42.80;;;21.90;99.90;;;;;;5065179;28;20648;-66
2021/06/18 05:10:10;;;;;;;50.30;44.73;;;22.00;99.90;;;;;;5065325;28;20754;-66
2021/06/18 05:12:39;;;;;;;51.07;45.37;;;22.00;99.90;;;;;;5066465;28;20744;-65
2021/06/18 05:15:12;;;;;;;54.53;48.90;;;22.00;99.90;;;;;;5066631;28;20330;-65
2021/06/18 05:17:40;;;;;;;54.70;47.33;;;22.10;99.90;;;;;;5067596;28;20238;-66
2021/06/18 05:20:09;;;;;;;54.80;49.40;;;22.10;99.90;;;;;;5064794;28;20590;-65
2021/06/18 05:22:39;;;;;;;52.27;46.67;;;22.20;99.90;;;;;;5065269;28;20521;-65
2021/06/18 05:25:08;;;;;;;49.23;43.00;;;22.40;99.90;;;;;;5065832;28;20273;-65
2021/06/18 05:27:36;;;;;;;49.53;44.63;;;22.50;99.90;;;;;;5063345;28;20607;-66
2021/06/18 05:30:06;;;;;;;48.67;43.67;;;22.70;99.90;;;;;;5065451;28;20543;-66
2021/06/18 05:32:46;;;;;;;53.10;47.53;;;22.90;99.90;;;;;;5065224;28;20851;-66
2021/06/18 05:35:15;;;;;;;50.17;44.87;;;23.20;99.90;;;;;;5065633;28;20231;-65
2021/06/18 05:37:43;;;;;;;51.63;46.07;;;23.30;99.90;;;;;;5066175;28;20318;-65
2021/06/18 05:40:12;;;;;;;51.17;45.77;;;23.30;99.90;;;;;;5065359;28;20246;-66
2021/06/18 05:42:41;;;;;;;48.17;43.33;;;23.40;99.90;;;;;;5065279;28;20242;-66
2021/06/18 05:45:11;;;;;;;49.87;44.50;;;23.60;99.90;;;;;;5065323;28;20244;-66
2021/06/18 05:47:39;;;;;;;44.57;39.77;;;23.70;99.90;;;;;;5065800;28;20232;-66
2021/06/18 05:50:09;;;;;;;42.53;38.10;;;23.90;99.90;;;;;;5065619;28;20692;-65
2021/06/18 05:52:38;;;;;;;45.33;40.70;;;24.10;99.90;;;;;;5065183;28;20319;-65
2021/06/18 05:55:08;;;;;;;43.17;38.57;;;24.20;99.90;;;;;;5065761;28;20232;-65
2021/06/18 05:57:38;;;;;;;42.80;38.13;;;24.30;99.90;;;;;;5065891;28;20231;-65
2021/06/18 06:00:07;;;;;;;41.60;37.13;;;24.40;99.90;;;;;;5064713;28;20313;-66
2021/06/18 06:02:37;;;;;;;34.73;31.17;;;24.60;99.90;;;;;;5057764;28;20624;-66
2021/06/18 06:05:05;;;;;;;37.10;33.20;;;24.80;99.90;;;;;;5065398;28;20231;-65
2021/06/18 06:07:35;;;;;;;38.83;34.93;;;25.00;99.90;;;;;;5065693;28;20253;-66
2021/06/18 06:10:04;;;;;;;39.90;36.00;;;25.10;99.90;;;;;;5064641;28;20234;-65
2021/06/18 06:12:33;;;;;;;33.33;30.03;;;25.10;99.90;;;;;;5065219;28;20241;-66
2021/06/18 06:15:01;;;;;;;32.20;29.00;;;25.40;99.90;;;;;;5065870;28;20225;-65
2021/06/18 06:17:29;;;;;;;29.87;26.87;;;25.60;99.90;;;;;;5067231;28;20587;-65
2021/06/18 06:19:57;;;;;;;35.17;31.57;;;25.80;99.90;;;;;;5065928;28;20232;-66
2021/06/18 06:22:25;;;;;;;32.20;29.00;;;25.80;99.90;;;;;;5066700;28;20263;-65
2021/06/18 06:24:55;;;;;;;30.97;27.93;;;25.90;99.90;;;;;;5065821;28;20267;-66
2021/06/18 06:27:23;;;;;;;34.63;31.27;;;26.20;99.90;;;;;;5066113;28;20693;-65
2021/06/18 06:29:51;;;;;;;25.07;22.13;;;26.40;99.90;;;;;;5064415;28;20238;-66
2021/06/18 06:32:19;;;;;;;23.73;21.43;;;26.50;99.90;;;;;;5066353;28;20708;-65
2021/06/18 06:34:47;;;;;;;27.37;24.47;;;26.70;99.90;;;;;;5064349;28;20620;-65
2021/06/18 06:37:18;;;;;;;22.23;19.90;;;26.80;99.90;;;;;;5066543;28;20234;-66
2021/06/18 06:39:47;;;;;;;25.00;22.57;;;26.80;99.90;;;;;;5064055;28;20237;-66
2021/06/18 06:42:16;;;;;;;26.27;23.40;;;27.00;99.90;;;;;;5062819;28;20231;-65
2021/06/18 06:44:44;;;;;;;32.77;28.17;;;27.10;99.90;;;;;;5062797;28;20694;-66
2021/06/18 06:47:12;;;;;;;31.30;27.77;;;27.10;99.90;;;;;;5064058;28;20234;-66
2021/06/18 06:49:41;;;;;;;31.10;28.00;;;27.00;99.90;;;;;;5062894;28;20705;-66
2021/06/18 06:52:09;;;;;;;31.50;27.47;;;27.10;99.90;;;;;;5063575;28;20223;-65
2021/06/18 06:54:39;;;;;;;31.37;28.10;;;27.40;99.90;;;;;;5062374;28;20227;-65
2021/06/18 06:57:08;;;;;;;28.57;24.60;;;27.30;99.90;;;;;;5066588;28;20707;-66
2021/06/18 06:59:37;;;;;;;29.50;24.17;;;27.30;99.90;;;;;;5064413;28;20234;-65
2021/06/18 07:02:05;;;;;;;25.37;22.87;;;27.40;99.90;;;;;;5065083;28;20322;-65
2021/06/18 07:04:34;;;;;;;26.27;23.73;;;27.60;99.90;;;;;;5064401;28;20752;-66
2021/06/18 07:07:02;;;;;;;25.30;22.73;;;27.50;99.90;;;;;;5064956;28;20238;-65
2021/06/18 07:09:33;;;;;;;22.23;20.07;;;27.60;99.90;;;;;;5064400;28;20645;-66
2021/06/18 07:12:01;;;;;;;20.87;18.63;;;27.60;99.90;;;;;;5064745;28;20260;-65
2021/06/18 07:14:29;;;;;;;23.33;20.97;;;27.80;99.90;;;;;;5064661;28;20238;-66
2021/06/18 07:16:59;;;;;;;26.23;23.53;;;28.20;99.90;;;;;;5065660;28;20242;-65
2021/06/18 07:19:27;;;;;;;23.90;21.40;;;28.30;99.90;;;;;;5064510;28;20814;-66
2021/06/18 07:21:55;;;;;;;30.57;27.53;;;28.50;99.90;;;;;;5064804;28;20349;-66
2021/06/18 07:24:24;;;;;;;32.07;28.93;;;28.50;99.90;;;;;;5065030;28;20243;-66
2021/06/18 07:26:52;;;;;;;27.13;24.43;;;28.60;99.90;;;;;;5065746;28;20784;-66
2021/06/18 07:29:20;;;;;;;28.33;25.63;;;28.70;99.90;;;;;;5074899;28;20303;-66
2021/06/18 07:31:48;;;;;;;24.07;20.60;;;28.80;99.90;;;;;;5067754;28;20258;-66
2021/06/18 07:34:18;;;;;;;24.13;21.77;;;28.80;99.90;;;;;;5066309;28;20555;-65
2021/06/18 07:36:46;;;;;;;25.03;21.77;;;29.00;99.90;;;;;;5066285;28;20265;-66
2021/06/18 07:39:15;;;;;;;19.07;17.10;;;29.40;99.90;;;;;;5066171;28;20254;-66
2021/06/18 07:41:43;;;;;;;24.67;22.17;;;29.60;99.90;;;;;;5065884;28;20238;-65
2021/06/18 07:44:11;;;;;;;21.73;19.53;;;29.60;99.90;;;;;;5068056;28;20245;-65
2021/06/18 07:46:39;;;;;;;25.47;22.90;;;29.60;99.90;;;;;;5069996;28;20231;-65
2021/06/18 07:49:08;;;;;;;19.60;17.53;;;29.70;99.90;;;;;;5068980;28;20240;-66
2021/06/18 07:51:40;;;;;;;23.10;20.63;;;29.80;99.90;;;;;;5069331;28;20242;-65
2021/06/18 07:54:11;;;;;;;20.63;17.90;;;30.00;99.90;;;;;;5069282;28;20733;-66
2021/06/18 07:56:43;;;;;;;23.30;20.27;;;30.10;99.90;;;;;;5069631;28;20257;-65
2021/06/18 07:59:12;;;;;;;21.10;19.07;;;30.10;99.90;;;;;;5084199;28;20243;-66
2021/06/18 08:01:41;;;;;;;28.97;26.23;;;30.10;99.90;;;;;;5068092;28;20243;-65
2021/06/18 08:04:09;;;;;;;18.63;16.83;;;30.10;99.90;;;;;;5064375;28;20250;-65
2021/06/18 08:06:37;;;;;;;19.77;17.63;;;30.30;99.90;;;;;;5066832;28;20242;-65
2021/06/18 08:09:07;;;;;;;20.10;18.13;;;30.60;99.90;;;;;;5066218;28;20296;-65
2021/06/18 08:11:36;;;;;;;23.90;21.30;;;30.80;99.90;;;;;;5066150;28;20237;-66
2021/06/18 08:14:04;;;;;;;25.27;22.67;;;31.00;99.90;;;;;;5065821;28;20730;-66
2021/06/18 08:16:32;;;;;;;27.33;22.43;;;31.00;99.90;;;;;;5066563;28;20244;-66
2021/06/18 08:19:01;;;;;;;27.23;24.40;;;30.90;99.90;;;;;;5065581;28;20297;-65
2021/06/18 08:21:29;;;;;;;25.07;22.40;;;30.90;99.90;;;;;;5066405;28;20729;-66
2021/06/18 08:23:57;;;;;;;26.00;22.33;;;31.00;99.90;;;;;;5065843;28;20235;-66
2021/06/18 08:26:26;;;;;;;24.33;21.47;;;31.00;99.90;;;;;;5066381;28;20242;-65
2021/06/18 08:28:54;;;;;;;19.07;15.77;;;31.10;99.90;;;;;;5065700;28;20245;-64
2021/06/18 08:31:22;;;;;;;21.10;18.87;;;31.30;99.90;;;;;;5063475;28;20243;-64
2021/06/18 08:33:51;;;;;;;22.37;20.07;;;31.70;99.90;;;;;;5065686;28;20235;-65
2021/06/18 08:36:19;;;;;;;18.30;16.50;;;31.70;99.90;;;;;;5066176;28;20250;-65
2021/06/18 08:38:47;;;;;;;21.90;19.57;;;32.00;99.90;;;;;;5065729;28;20258;-65
2021/06/18 08:41:18;;;;;;;22.13;20.13;;;31.80;99.90;;;;;;5065684;28;20299;-65
2021/06/18 08:43:49;;;;;;;25.63;22.03;;;31.80;99.90;;;;;;5065719;28;21366;-65
2021/06/18 08:46:17;;;;;;;25.50;23.03;;;31.90;99.90;;;;;;5066341;28;20235;-65
2021/06/18 08:48:47;;;;;;;25.23;22.90;;;32.00;99.90;;;;;;5065804;28;20237;-64
2021/06/18 08:51:18;;;;;;;24.60;22.20;;;32.10;99.90;;;;;;5065737;28;20748;-64
2021/06/18 08:53:47;;;;;;;24.67;22.37;;;32.00;99.90;;;;;;5065553;28;20234;-65
2021/06/18 08:56:15;;;;;;;25.67;22.73;;;31.70;99.90;;;;;;5065863;28;20305;-64
2021/06/18 08:58:43;;;;;;;20.33;18.37;;;31.80;99.90;;;;;;5065947;28;20243;-65
2021/06/18 09:01:13;;;;;;;23.47;21.00;;;31.90;99.90;;;;;;5045626;28;20584;-65
2021/06/18 09:03:47;;;;;;;19.37;17.53;;;32.00;99.90;;;;;;5045099;28;20265;-64
2021/06/18 09:06:29;;;;;;;19.87;18.07;;;32.30;99.90;;;;;;5065948;28;20235;-65
2021/06/18 09:09:25;;;;;;;18.20;16.50;;;32.60;99.90;;;;;;5065402;28;20290;-64
2021/06/18 09:11:55;;;;;;;15.63;13.43;;;32.80;99.90;;;;;;5024226;28;20353;-65
2021/06/18 09:14:26;;;;;;;15.63;12.67;;;33.30;99.90;;;;;;5054795;28;20352;-65
2021/06/18 09:17:07;;;;;;;21.67;19.07;;;33.40;99.90;;;;;;5056889;28;20716;-65
2021/06/18 09:19:42;;;;;;;19.87;17.87;;;33.10;99.90;;;;;;5056223;28;20237;-65
2021/06/18 09:22:15;;;;;;;20.87;15.17;;;32.90;99.90;;;;;;5054811;28;20421;-65
2021/06/18 09:24:45;;;;;;;21.03;18.83;;;32.80;99.90;;;;;;5055894;28;20734;-65
2021/06/18 09:27:14;;;;;;;18.30;16.50;;;33.00;99.90;;;;;;5056396;28;20712;-65
2021/06/18 09:29:43;;;;;;;19.30;17.20;;;32.80;99.90;;;;;;5055888;28;20248;-64
2021/06/18 09:32:14;;;;;;;18.10;16.20;;;32.80;99.90;;;;;;5054079;28;20609;-65
2021/06/18 09:34:51;;;;;;;17.67;16.07;;;32.80;99.90;;;;;;5054853;28;20597;-64
2021/06/18 09:37:25;;;;;;;16.40;14.63;;;32.60;99.90;;;;;;5055702;28;21009;-64
2021/06/18 09:40:05;;;;;;;15.63;13.13;;;33.30;99.90;;;;;;5056211;28;20239;-64
2021/06/18 09:42:35;;;;;;;12.47;9.90;;;33.60;99.90;;;;;;5051718;28;20334;-65
2021/06/18 09:45:07;;;;;;;15.00;13.33;;;33.70;99.90;;;;;;5055220;28;20238;-64
2021/06/18 09:47:38;;;;;;;11.57;10.27;;;33.60;99.90;;;;;;5051246;28;20720;-64
2021/06/18 09:50:20;;;;;;;10.97;9.80;;;33.40;99.90;;;;;;5055395;28;20644;-64
2021/06/18 09:52:49;;;;;;;12.87;11.53;;;33.60;99.90;;;;;;5053077;28;20246;-65
2021/06/18 09:55:21;;;;;;;11.47;10.33;;;33.90;99.90;;;;;;5055403;28;20241;-64
2021/06/18 09:57:54;;;;;;;15.13;9.80;;;33.90;99.90;;;;;;5055757;28;20694;-64
2021/06/18 10:00:24;;;;;;;12.33;11.13;;;34.10;99.90;;;;;;5055522;28;20346;-64
2021/06/18 10:02:56;;;;;;;13.37;11.40;;;34.00;99.90;;;;;;5053043;28;20245;-64
2021/06/18 10:05:25;;;;;;;13.77;10.63;;;33.90;99.90;;;;;;5055489;28;20845;-65
2021/06/18 10:07:55;;;;;;;10.50;9.40;;;33.70;99.90;;;;;;5055961;28;20242;-64
2021/06/18 10:10:25;;;;;;;11.67;10.57;;;33.70;99.90;;;;;;5054961;28;20243;-65
2021/06/18 10:12:55;;;;;;;9.60;8.20;;;33.70;99.90;;;;;;5052624;28;20245;-64
2021/06/18 10:15:26;;;;;;;14.03;9.40;;;34.10;99.90;;;;;;5055087;28;20556;-64
2021/06/18 10:17:58;;;;;;;13.87;10.33;;;34.30;99.90;;;;;;5055184;28;21441;-65
2021/06/18 10:20:29;;;;;;;14.13;11.40;;;34.10;99.90;;;;;;5054802;28;20588;-64
2021/06/18 10:23:00;;;;;;;12.77;11.43;;;34.00;99.90;;;;;;5052852;28;20614;-64
2021/06/18 10:25:32;;;;;;;16.10;12.97;;;34.20;99.90;;;;;;5055199;28;20235;-64
2021/06/18 10:28:06;;;;;;;15.43;12.90;;;34.10;99.90;;;;;;5055104;28;20321;-64
2021/06/18 10:30:47;;;;;;;16.40;14.77;;;33.60;99.90;;;;;;5049445;28;20825;-64
2021/06/18 10:33:35;;;;;;;14.80;11.47;;;33.70;99.90;;;;;;5057102;28;20324;-64
2021/06/18 10:36:20;;;;;;;15.03;12.10;;;33.70;99.90;;;;;;5054582;28;20300;-64
2021/06/18 10:39:01;;;;;;;17.40;12.40;;;33.70;99.90;;;;;;5053890;28;20242;-64
2021/06/18 10:41:29;;;;;;;12.57;11.37;;;33.50;99.90;;;;;;5051668;28;20277;-64
2021/06/18 10:43:58;;;;;;;10.97;9.77;;;33.60;99.90;;;;;;5054819;28;20328;-64
2021/06/18 10:46:33;;;;;;;9.47;8.50;;;33.50;99.90;;;;;;5055311;28;20300;-64
2021/06/18 10:49:11;;;;;;;9.53;8.53;;;33.80;99.90;;;;;;5055169;28;20298;-64
2021/06/18 10:51:58;;;;;;;12.47;9.57;;;34.10;99.10;;;;;;5052411;28;20246;-64
2021/06/18 10:54:46;;;;;;;12.40;10.53;;;34.00;99.20;;;;;;5052985;28;20703;-64
2021/06/18 10:57:17;;;;;;;11.37;8.20;;;34.30;99.90;;;;;;5067177;28;20247;-64
2021/06/18 10:59:46;;;;;;;12.93;9.93;;;35.20;99.90;;;;;;5074845;28;20239;-64
2021/06/18 11:02:39;;;;;;;9.93;8.77;;;34.80;99.10;;;;;;5064230;28;20535;-64
2021/06/18 11:05:38;;;;;;;11.13;8.27;;;34.90;98.90;;;;;;5063457;28;20235;-64
2021/06/18 11:08:18;;;;;;;10.70;9.50;;;35.20;98.70;;;;;;5064115;28;20245;-64
2021/06/18 11:11:02;;;;;;;8.93;7.90;;;35.20;99.10;;;;;;5062988;28;20242;-65
2021/06/18 11:13:32;;;;;;;8.70;7.90;;;35.20;98.60;;;;;;5063698;28;20568;-65
2021/06/18 11:16:00;;;;;;;9.07;7.27;;;35.20;97.80;;;;;;5063563;28;20242;-64
2021/06/18 11:18:41;;;;;;;9.20;6.90;;;35.20;98.10;;;;;;5064778;28;20234;-64
2021/06/18 11:21:10;;;;;;;9.03;7.20;;;35.40;98.30;;;;;;5067665;28;20644;-64
2021/06/18 11:23:59;;;;;;;9.37;7.90;;;35.40;97.80;;;;;;5067444;28;20718;-64
2021/06/18 11:26:28;;;;;;;11.07;8.40;;;35.30;97.30;;;;;;5047219;28;20243;-64
2021/06/18 11:28:58;;;;;;;9.63;8.70;;;35.60;97.20;;;;;;5048816;28;20330;-65
2021/06/18 11:31:43;;;;;;;7.90;7.10;;;35.70;98.50;;;;;;5067335;28;20715;-64
2021/06/18 11:34:25;;;;;;;10.27;8.80;;;36.20;97.40;;;;;;5066569;28;20342;-64
2021/06/18 11:36:56;;;;;;;7.63;6.87;;;36.50;96.90;;;;;;5067383;28;20595;-64
2021/06/18 11:39:27;;;;;;;9.63;7.70;;;36.40;96.60;;;;;;5067012;28;20247;-64
2021/06/18 11:42:05;;;;;;;9.57;8.67;;;36.50;96.10;;;;;;5067827;28;20286;-64
2021/06/18 11:44:37;;;;;;;8.47;7.50;;;36.40;96.40;;;;;;5067338;28;20325;-64
2021/06/18 11:47:07;;;;;;;8.70;7.80;;;36.30;97.00;;;;;;5069937;28;20288;-64
2021/06/18 11:49:42;;;;;;;8.80;7.90;;;36.40;96.70;;;;;;5071101;28;20229;-64
2021/06/18 11:52:12;;;;;;;8.63;7.70;;;36.50;96.50;;;;;;5069529;28;20321;-64
2021/06/18 11:54:44;;;;;;;7.77;6.27;;;36.40;96.50;;;;;;5068136;28;20321;-64
2021/06/18 11:57:19;;;;;;;7.60;6.90;;;36.70;96.70;;;;;;5069968;28;20300;-64
2021/06/18 11:59:59;;;;;;;8.73;7.13;;;36.40;95.60;;;;;;5068736;28;20316;-64
2021/06/18 12:02:32;;;;;;;7.30;6.37;;;36.30;96.90;;;;;;5069501;28;20668;-64
2021/06/18 12:05:09;;;;;;;8.40;7.53;;;35.80;96.60;;;;;;5057484;28;20606;-65
2021/06/18 12:07:39;;;;;;;7.20;6.53;;;35.80;96.30;;;;;;5066246;28;20259;-65
2021/06/18 12:10:10;;;;;;;9.93;7.53;;;35.60;96.50;;;;;;5064361;28;20228;-65
2021/06/18 12:12:45;;;;;;;8.33;6.97;;;35.20;96.30;;;;;;5066219;28;20242;-65
2021/06/18 12:15:18;;;;;;;8.70;7.37;;;35.40;97.30;;;;;;5064333;28;20663;-65
2021/06/18 12:17:51;;;;;;;8.20;7.37;;;35.10;97.40;;;;;;5054141;28;20231;-66
2021/06/18 12:20:24;;;;;;;8.40;7.47;;;35.20;97.70;;;;;;5044656;28;20409;-66
2021/06/18 12:22:53;;;;;;;8.27;7.57;;;35.20;97.00;;;;;;5046027;28;20723;-65
2021/06/18 12:25:25;;;;;;;8.20;7.37;;;34.80;96.30;;;;;;5047035;28;20247;-65
2021/06/18 12:27:58;;;;;;;8.40;7.23;;;34.60;97.40;;;;;;5047271;28;20259;-65
2021/06/18 12:30:30;;;;;;;9.60;8.17;;;34.60;97.50;;;;;;5047550;28;20711;-65
2021/06/18 12:32:59;;;;;;;9.47;8.10;;;34.60;96.80;;;;;;5048645;28;20624;-65
2021/06/18 12:35:39;;;;;;;9.43;8.47;;;34.80;97.30;;;;;;5048060;28;20228;-65
2021/06/18 12:38:11;;;;;;;9.23;8.33;;;34.70;96.50;;;;;;5049022;28;20686;-66
2021/06/18 12:40:40;;;;;;;10.10;9.10;;;34.90;97.20;;;;;;5043732;28;20223;-66
2021/06/18 12:43:10;;;;;;;10.77;9.13;;;34.90;95.80;;;;;;5049319;28;20228;-66
2021/06/18 12:45:44;;;;;;;10.33;8.57;;;34.30;96.40;;;;;;5052155;28;20263;-66
2021/06/18 12:48:17;;;;;;;8.90;8.10;;;33.90;97.20;;;;;;5047259;28;20310;-66
2021/06/18 12:50:47;;;;;;;9.33;8.43;;;33.90;98.00;;;;;;5047586;28;20243;-66